sensor_id;sensor_type;location;lat;lon;timestamp;P1;durP1;ratioP1;P2;durP2;ratioP2
62693;SDS011;48759;52.544;13.418;2022-11-10T00:00:28;2.27;;;1.83;;
62693;SDS011;48759;52.544;13.418;2022-11-10T00:02:55;2.80;;;1.90;;
62693;SDS011;48759;52.544;13.418;2022-11-10T00:05:25;5.43;;;2.30;;
62693;SDS011;48759;52.544;13.418;2022-11-10T00:07:52;7.13;;;2.57;;
62693;SDS011;48759;52.544;13.418;2022-11-10T00:10:19;6.37;;;2.20;;
62693;SDS011;48759;52.544;13.418;2022-11-10T00:12:47;7.93;;;2.90;;
62693;SDS011;48759;52.544;13.418;2022-11-10T00:15:13;4.73;;;2.00;;
62693;SDS011;48759;52.544;13.418;2022-11-10T00:17:59;3.00;;;2.13;;
62693;SDS011;48759;52.544;13.418;2022-11-10T00:20:26;4.60;;;2.67;;
62693;SDS011;48759;52.544;13.418;2022-11-10T00:22:53;2.83;;;1.90;;
62693;SDS011;48759;52.544;13.418;2022-11-10T00:25:20;4.23;;;1.80;;
62693;SDS011;48759;52.544;13.418;2022-11-10T00:27:48;2.30;;;2.13;;
62693;SDS011;48759;52.544;13.418;2022-11-10T00:30:15;5.20;;;2.47;;
62693;SDS011;48759;52.544;13.418;2022-11-10T00:32:42;7.20;;;2.20;;
62693;SDS011;48759;52.544;13.418;2022-11-10T00:35:08;6.03;;;2.50;;
62693;SDS011;48759;52.544;13.418;2022-11-10T00:37:35;3.70;;;2.27;;
62693;SDS011;48759;52.544;13.418;2022-11-10T00:40:02;6.30;;;2.37;;
62693;SDS011;48759;52.544;13.418;2022-11-10T00:42:29;5.17;;;2.37;;
62693;SDS011;48759;52.544;13.418;2022-11-10T00:44:57;2.70;;;1.80;;
62693;SDS011;48759;52.544;13.418;2022-11-10T00:47:24;11.60;;;2.27;;
62693;SDS011;48759;52.544;13.418;2022-11-10T00:49:50;6.70;;;2.53;;
62693;SDS011;48759;52.544;13.418;2022-11-10T00:52:17;7.60;;;2.57;;
62693;SDS011;48759;52.544;13.418;2022-11-10T00:54:43;6.07;;;2.50;;
62693;SDS011;48759;52.544;13.418;2022-11-10T00:57:10;2.10;;;1.90;;
62693;SDS011;48759;52.544;13.418;2022-11-10T00:59:36;7.80;;;2.70;;
62693;SDS011;48759;52.544;13.418;2022-11-10T01:02:04;5.30;;;2.23;;
62693;SDS011;48759;52.544;13.418;2022-11-10T01:04:31;2.90;;;2.00;;
62693;SDS011;48759;52.544;13.418;2022-11-10T01:06:58;7.23;;;2.57;;
62693;SDS011;48759;52.544;13.418;2022-11-10T01:09:24;6.60;;;2.80;;
62693;SDS011;48759;52.544;13.418;2022-11-10T01:11:51;7.30;;;2.37;;
62693;SDS011;48759;52.544;13.418;2022-11-10T01:14:17;7.13;;;3.97;;
62693;SDS011;48759;52.544;13.418;2022-11-10T01:16:44;10.50;;;2.70;;
62693;SDS011;48759;52.544;13.418;2022-11-10T01:19:12;7.90;;;2.40;;
62693;SDS011;48759;52.544;13.418;2022-11-10T01:21:39;3.90;;;2.17;;
62693;SDS011;48759;52.544;13.418;2022-11-10T01:24:05;12.63;;;2.70;;
62693;SDS011;48759;52.544;13.418;2022-11-10T01:26:32;7.10;;;3.23;;
62693;SDS011;48759;52.544;13.418;2022-11-10T01:28:59;6.63;;;2.70;;
62693;SDS011;48759;52.544;13.418;2022-11-10T01:31:25;5.07;;;2.10;;
62693;SDS011;48759;52.544;13.418;2022-11-10T01:33:52;4.50;;;2.73;;
62693;SDS011;48759;52.544;13.418;2022-11-10T01:36:20;4.23;;;2.70;;
62693;SDS011;48759;52.544;13.418;2022-11-10T01:38:47;3.70;;;2.20;;
62693;SDS011;48759;52.544;13.418;2022-11-10T01:41:13;5.60;;;2.20;;
62693;SDS011;48759;52.544;13.418;2022-11-10T01:43:40;4.13;;;2.27;;
62693;SDS011;48759;52.544;13.418;2022-11-10T01:46:07;3.23;;;2.07;;
62693;SDS011;48759;52.544;13.418;2022-11-10T01:48:36;9.40;;;2.50;;
62693;SDS011;48759;52.544;13.418;2022-11-10T01:51:07;4.80;;;2.10;;
62693;SDS011;48759;52.544;13.418;2022-11-10T01:53:39;7.80;;;2.10;;
62693;SDS011;48759;52.544;13.418;2022-11-10T01:56:08;3.67;;;2.10;;
62693;SDS011;48759;52.544;13.418;2022-11-10T01:58:37;4.00;;;1.90;;
62693;SDS011;48759;52.544;13.418;2022-11-10T02:01:08;5.10;;;2.37;;
62693;SDS011;48759;52.544;13.418;2022-11-10T02:03:38;6.63;;;2.53;;
62693;SDS011;48759;52.544;13.418;2022-11-10T02:06:08;4.83;;;2.27;;
62693;SDS011;48759;52.544;13.418;2022-11-10T02:08:36;7.27;;;2.20;;
62693;SDS011;48759;52.544;13.418;2022-11-10T02:11:06;5.80;;;2.63;;
62693;SDS011;48759;52.544;13.418;2022-11-10T02:13:32;7.47;;;2.17;;
62693;SDS011;48759;52.544;13.418;2022-11-10T02:15:59;4.53;;;2.57;;
62693;SDS011;48759;52.544;13.418;2022-11-10T02:18:26;7.00;;;2.23;;
62693;SDS011;48759;52.544;13.418;2022-11-10T02:20:54;3.87;;;1.90;;
62693;SDS011;48759;52.544;13.418;2022-11-10T02:26:10;16.97;;;2.80;;
62693;SDS011;48759;52.544;13.418;2022-11-10T02:28:39;3.03;;;2.00;;
62693;SDS011;48759;52.544;13.418;2022-11-10T02:31:06;9.70;;;2.87;;
62693;SDS011;48759;52.544;13.418;2022-11-10T02:33:33;4.70;;;2.30;;
62693;SDS011;48759;52.544;13.418;2022-11-10T02:36:01;5.40;;;2.33;;
62693;SDS011;48759;52.544;13.418;2022-11-10T02:38:28;8.43;;;2.23;;
62693;SDS011;48759;52.544;13.418;2022-11-10T02:40:55;4.67;;;2.60;;
62693;SDS011;48759;52.544;13.418;2022-11-10T02:43:21;4.90;;;2.20;;
62693;SDS011;48759;52.544;13.418;2022-11-10T02:45:48;8.03;;;2.50;;
62693;SDS011;48759;52.544;13.418;2022-11-10T02:48:14;10.83;;;2.20;;
62693;SDS011;48759;52.544;13.418;2022-11-10T02:50:41;6.97;;;2.30;;
62693;SDS011;48759;52.544;13.418;2022-11-10T02:53:10;7.07;;;2.67;;
62693;SDS011;48759;52.544;13.418;2022-11-10T02:55:37;5.20;;;2.47;;
62693;SDS011;48759;52.544;13.418;2022-11-10T02:58:03;9.53;;;2.37;;
62693;SDS011;48759;52.544;13.418;2022-11-10T03:00:30;6.50;;;2.20;;
62693;SDS011;48759;52.544;13.418;2022-11-10T03:02:57;4.23;;;2.33;;
62693;SDS011;48759;52.544;13.418;2022-11-10T03:05:27;4.67;;;2.50;;
62693;SDS011;48759;52.544;13.418;2022-11-10T03:07:54;9.10;;;2.47;;
62693;SDS011;48759;52.544;13.418;2022-11-10T03:10:24;11.53;;;2.50;;
62693;SDS011;48759;52.544;13.418;2022-11-10T03:12:52;4.83;;;2.57;;
62693;SDS011;48759;52.544;13.418;2022-11-10T03:15:21;7.33;;;2.60;;
62693;SDS011;48759;52.544;13.418;2022-11-10T03:17:48;4.77;;;2.63;;
62693;SDS011;48759;52.544;13.418;2022-11-10T03:20:15;5.07;;;2.50;;
62693;SDS011;48759;52.544;13.418;2022-11-10T03:22:42;4.83;;;2.50;;
62693;SDS011;48759;52.544;13.418;2022-11-10T03:25:09;6.63;;;2.80;;
62693;SDS011;48759;52.544;13.418;2022-11-10T03:27:38;3.97;;;2.50;;
62693;SDS011;48759;52.544;13.418;2022-11-10T03:30:05;10.23;;;2.90;;
62693;SDS011;48759;52.544;13.418;2022-11-10T03:32:33;9.13;;;3.67;;
62693;SDS011;48759;52.544;13.418;2022-11-10T03:34:59;5.27;;;3.40;;
62693;SDS011;48759;52.544;13.418;2022-11-10T03:37:26;3.27;;;2.50;;
62693;SDS011;48759;52.544;13.418;2022-11-10T03:39:52;9.50;;;2.90;;
62693;SDS011;48759;52.544;13.418;2022-11-10T03:42:19;16.63;;;2.80;;
62693;SDS011;48759;52.544;13.418;2022-11-10T03:44:47;10.70;;;2.60;;
62693;SDS011;48759;52.544;13.418;2022-11-10T03:47:14;7.53;;;2.73;;
62693;SDS011;48759;52.544;13.418;2022-11-10T03:49:40;9.97;;;2.80;;
62693;SDS011;48759;52.544;13.418;2022-11-10T03:52:07;10.30;;;2.93;;
62693;SDS011;48759;52.544;13.418;2022-11-10T03:54:33;12.50;;;4.27;;
62693;SDS011;48759;52.544;13.418;2022-11-10T03:57:00;6.07;;;2.63;;
62693;SDS011;48759;52.544;13.418;2022-11-10T03:59:27;11.33;;;3.03;;
62693;SDS011;48759;52.544;13.418;2022-11-10T04:01:55;6.40;;;2.70;;
62693;SDS011;48759;52.544;13.418;2022-11-10T04:04:21;10.10;;;2.90;;
62693;SDS011;48759;52.544;13.418;2022-11-10T04:07:11;5.30;;;2.70;;
62693;SDS011;48759;52.544;13.418;2022-11-10T04:09:55;9.47;;;2.87;;
62693;SDS011;48759;52.544;13.418;2022-11-10T04:12:22;7.70;;;3.00;;
62693;SDS011;48759;52.544;13.418;2022-11-10T04:15:07;7.47;;;3.27;;
62693;SDS011;48759;52.544;13.418;2022-11-10T04:17:53;10.43;;;3.00;;
62693;SDS011;48759;52.544;13.418;2022-11-10T04:20:40;8.87;;;2.50;;
62693;SDS011;48759;52.544;13.418;2022-11-10T04:23:07;10.40;;;3.17;;
62693;SDS011;48759;52.544;13.418;2022-11-10T04:25:51;9.10;;;3.30;;
62693;SDS011;48759;52.544;13.418;2022-11-10T04:28:31;11.77;;;3.10;;
62693;SDS011;48759;52.544;13.418;2022-11-10T04:30:58;11.13;;;2.97;;
62693;SDS011;48759;52.544;13.418;2022-11-10T04:33:26;6.60;;;2.83;;
62693;SDS011;48759;52.544;13.418;2022-11-10T04:35:52;4.53;;;2.70;;
62693;SDS011;48759;52.544;13.418;2022-11-10T04:38:19;4.90;;;3.13;;
62693;SDS011;48759;52.544;13.418;2022-11-10T04:40:45;8.03;;;3.30;;
62693;SDS011;48759;52.544;13.418;2022-11-10T04:43:12;12.73;;;3.60;;
62693;SDS011;48759;52.544;13.418;2022-11-10T04:45:39;6.50;;;3.20;;
62693;SDS011;48759;52.544;13.418;2022-11-10T04:48:05;8.30;;;3.13;;
62693;SDS011;48759;52.544;13.418;2022-11-10T04:50:34;9.17;;;3.50;;
62693;SDS011;48759;52.544;13.418;2022-11-10T04:53:00;10.27;;;3.43;;
62693;SDS011;48759;52.544;13.418;2022-11-10T04:55:27;18.37;;;3.30;;
62693;SDS011;48759;52.544;13.418;2022-11-10T04:57:55;7.60;;;2.73;;
62693;SDS011;48759;52.544;13.418;2022-11-10T05:00:21;8.93;;;4.27;;
62693;SDS011;48759;52.544;13.418;2022-11-10T05:02:48;12.93;;;4.00;;
62693;SDS011;48759;52.544;13.418;2022-11-10T05:05:15;12.37;;;3.87;;
62693;SDS011;48759;52.544;13.418;2022-11-10T05:07:44;9.60;;;3.90;;
62693;SDS011;48759;52.544;13.418;2022-11-10T05:10:13;8.67;;;3.40;;
62693;SDS011;48759;52.544;13.418;2022-11-10T05:12:39;5.90;;;3.40;;
62693;SDS011;48759;52.544;13.418;2022-11-10T05:15:06;12.17;;;3.30;;
62693;SDS011;48759;52.544;13.418;2022-11-10T05:17:34;5.60;;;3.53;;
62693;SDS011;48759;52.544;13.418;2022-11-10T05:20:01;4.90;;;3.50;;
62693;SDS011;48759;52.544;13.418;2022-11-10T05:22:27;6.63;;;3.90;;
62693;SDS011;48759;52.544;13.418;2022-11-10T05:24:55;8.00;;;3.47;;
62693;SDS011;48759;52.544;13.418;2022-11-10T05:27:22;8.43;;;3.33;;
62693;SDS011;48759;52.544;13.418;2022-11-10T05:29:48;16.63;;;4.33;;
62693;SDS011;48759;52.544;13.418;2022-11-10T05:32:15;7.13;;;3.90;;
62693;SDS011;48759;52.544;13.418;2022-11-10T05:34:42;7.40;;;3.40;;
62693;SDS011;48759;52.544;13.418;2022-11-10T05:37:08;9.73;;;3.77;;
62693;SDS011;48759;52.544;13.418;2022-11-10T05:39:35;4.30;;;2.87;;
62693;SDS011;48759;52.544;13.418;2022-11-10T05:42:03;11.70;;;3.50;;
62693;SDS011;48759;52.544;13.418;2022-11-10T05:44:29;10.60;;;3.47;;
62693;SDS011;48759;52.544;13.418;2022-11-10T05:46:56;13.30;;;3.87;;
62693;SDS011;48759;52.544;13.418;2022-11-10T05:49:22;15.70;;;4.27;;
62693;SDS011;48759;52.544;13.418;2022-11-10T05:51:51;8.70;;;3.73;;
62693;SDS011;48759;52.544;13.418;2022-11-10T05:54:18;8.93;;;3.70;;
62693;SDS011;48759;52.544;13.418;2022-11-10T05:56:44;7.17;;;3.70;;
62693;SDS011;48759;52.544;13.418;2022-11-10T05:59:12;6.47;;;3.40;;
62693;SDS011;48759;52.544;13.418;2022-11-10T06:01:39;12.23;;;4.40;;
62693;SDS011;48759;52.544;13.418;2022-11-10T06:04:05;6.73;;;3.80;;
62693;SDS011;48759;52.544;13.418;2022-11-10T06:06:32;9.33;;;3.90;;
62693;SDS011;48759;52.544;13.418;2022-11-10T06:08:58;8.40;;;3.70;;
62693;SDS011;48759;52.544;13.418;2022-11-10T06:11:25;8.07;;;4.07;;
62693;SDS011;48759;52.544;13.418;2022-11-10T06:13:52;4.63;;;3.93;;
62693;SDS011;48759;52.544;13.418;2022-11-10T06:16:20;12.17;;;4.27;;
62693;SDS011;48759;52.544;13.418;2022-11-10T06:18:46;18.00;;;5.17;;
62693;SDS011;48759;52.544;13.418;2022-11-10T06:21:13;12.23;;;3.80;;
62693;SDS011;48759;52.544;13.418;2022-11-10T06:23:39;7.60;;;4.23;;
62693;SDS011;48759;52.544;13.418;2022-11-10T06:26:06;11.57;;;5.40;;
62693;SDS011;48759;52.544;13.418;2022-11-10T06:28:33;15.83;;;4.23;;
62693;SDS011;48759;52.544;13.418;2022-11-10T06:30:59;7.03;;;4.30;;
62693;SDS011;48759;52.544;13.418;2022-11-10T06:33:27;9.77;;;3.63;;
62693;SDS011;48759;52.544;13.418;2022-11-10T06:35:54;11.50;;;4.07;;
62693;SDS011;48759;52.544;13.418;2022-11-10T06:38:20;11.43;;;3.87;;
62693;SDS011;48759;52.544;13.418;2022-11-10T06:40:47;8.30;;;4.10;;
62693;SDS011;48759;52.544;13.418;2022-11-10T06:43:13;10.50;;;4.07;;
62693;SDS011;48759;52.544;13.418;2022-11-10T06:45:40;8.47;;;4.17;;
62693;SDS011;48759;52.544;13.418;2022-11-10T06:48:08;9.93;;;4.47;;
62693;SDS011;48759;52.544;13.418;2022-11-10T06:50:39;7.67;;;3.93;;
62693;SDS011;48759;52.544;13.418;2022-11-10T06:53:05;12.30;;;4.17;;
62693;SDS011;48759;52.544;13.418;2022-11-10T06:55:32;15.43;;;4.90;;
62693;SDS011;48759;52.544;13.418;2022-11-10T06:57:59;10.53;;;4.73;;
62693;SDS011;48759;52.544;13.418;2022-11-10T07:00:26;15.37;;;4.60;;
62693;SDS011;48759;52.544;13.418;2022-11-10T07:02:57;13.27;;;4.57;;
62693;SDS011;48759;52.544;13.418;2022-11-10T07:05:27;8.37;;;3.77;;
62693;SDS011;48759;52.544;13.418;2022-11-10T07:07:56;23.47;;;4.27;;
62693;SDS011;48759;52.544;13.418;2022-11-10T07:10:27;14.63;;;4.43;;
62693;SDS011;48759;52.544;13.418;2022-11-10T07:12:54;12.63;;;4.80;;
62693;SDS011;48759;52.544;13.418;2022-11-10T07:15:22;9.77;;;4.20;;
62693;SDS011;48759;52.544;13.418;2022-11-10T07:17:49;9.03;;;3.80;;
62693;SDS011;48759;52.544;13.418;2022-11-10T07:20:15;13.63;;;4.27;;
62693;SDS011;48759;52.544;13.418;2022-11-10T07:22:42;10.77;;;4.40;;
62693;SDS011;48759;52.544;13.418;2022-11-10T07:25:10;14.83;;;4.60;;
62693;SDS011;48759;52.544;13.418;2022-11-10T07:27:37;17.73;;;5.20;;
62693;SDS011;48759;52.544;13.418;2022-11-10T07:30:04;8.90;;;4.27;;
62693;SDS011;48759;52.544;13.418;2022-11-10T07:32:31;7.13;;;4.40;;
62693;SDS011;48759;52.544;13.418;2022-11-10T07:34:58;12.80;;;4.33;;
62693;SDS011;48759;52.544;13.418;2022-11-10T07:37:24;7.53;;;4.13;;
62693;SDS011;48759;52.544;13.418;2022-11-10T07:39:51;12.90;;;3.73;;
62693;SDS011;48759;52.544;13.418;2022-11-10T07:42:19;13.97;;;4.33;;
62693;SDS011;48759;52.544;13.418;2022-11-10T07:44:45;8.70;;;4.90;;
62693;SDS011;48759;52.544;13.418;2022-11-10T07:47:12;12.97;;;4.43;;
62693;SDS011;48759;52.544;13.418;2022-11-10T07:49:39;25.00;;;4.90;;
62693;SDS011;48759;52.544;13.418;2022-11-10T07:52:05;14.23;;;4.47;;
62693;SDS011;48759;52.544;13.418;2022-11-10T07:54:32;11.67;;;4.07;;
62693;SDS011;48759;52.544;13.418;2022-11-10T07:56:58;16.40;;;4.03;;
62693;SDS011;48759;52.544;13.418;2022-11-10T07:59:26;9.67;;;4.57;;
62693;SDS011;48759;52.544;13.418;2022-11-10T08:01:53;10.53;;;4.90;;
62693;SDS011;48759;52.544;13.418;2022-11-10T08:04:20;10.57;;;4.63;;
62693;SDS011;48759;52.544;13.418;2022-11-10T08:06:46;8.40;;;4.50;;
62693;SDS011;48759;52.544;13.418;2022-11-10T08:09:13;14.30;;;5.30;;
62693;SDS011;48759;52.544;13.418;2022-11-10T08:11:39;15.53;;;4.53;;
62693;SDS011;48759;52.544;13.418;2022-11-10T08:14:06;13.80;;;4.53;;
62693;SDS011;48759;52.544;13.418;2022-11-10T08:16:34;12.17;;;4.60;;
62693;SDS011;48759;52.544;13.418;2022-11-10T08:19:00;9.50;;;4.70;;
62693;SDS011;48759;52.544;13.418;2022-11-10T08:21:27;10.70;;;5.17;;
62693;SDS011;48759;52.544;13.418;2022-11-10T08:23:54;8.07;;;4.63;;
62693;SDS011;48759;52.544;13.418;2022-11-10T08:26:20;11.70;;;4.20;;
62693;SDS011;48759;52.544;13.418;2022-11-10T08:28:47;14.00;;;5.63;;
62693;SDS011;48759;52.544;13.418;2022-11-10T08:31:13;10.73;;;5.87;;
62693;SDS011;48759;52.544;13.418;2022-11-10T08:33:41;8.50;;;4.80;;
62693;SDS011;48759;52.544;13.418;2022-11-10T08:36:08;16.30;;;5.30;;
62693;SDS011;48759;52.544;13.418;2022-11-10T08:38:35;11.13;;;4.97;;
62693;SDS011;48759;52.544;13.418;2022-11-10T08:41:01;13.50;;;5.00;;
62693;SDS011;48759;52.544;13.418;2022-11-10T08:43:28;6.37;;;4.57;;
62693;SDS011;48759;52.544;13.418;2022-11-10T08:45:55;12.13;;;5.33;;
62693;SDS011;48759;52.544;13.418;2022-11-10T08:48:22;9.73;;;5.00;;
62693;SDS011;48759;52.544;13.418;2022-11-10T08:50:51;22.13;;;4.87;;
62693;SDS011;48759;52.544;13.418;2022-11-10T08:53:18;16.00;;;5.33;;
62693;SDS011;48759;52.544;13.418;2022-11-10T08:55:47;13.80;;;4.77;;
62693;SDS011;48759;52.544;13.418;2022-11-10T08:58:14;11.27;;;5.10;;
62693;SDS011;48759;52.544;13.418;2022-11-10T09:00:42;15.93;;;6.20;;
62693;SDS011;48759;52.544;13.418;2022-11-10T09:03:11;15.47;;;5.90;;
62693;SDS011;48759;52.544;13.418;2022-11-10T09:05:39;18.80;;;5.30;;
62693;SDS011;48759;52.544;13.418;2022-11-10T09:08:07;15.17;;;5.70;;
62693;SDS011;48759;52.544;13.418;2022-11-10T09:10:35;14.60;;;5.20;;
62693;SDS011;48759;52.544;13.418;2022-11-10T09:13:03;11.20;;;5.10;;
62693;SDS011;48759;52.544;13.418;2022-11-10T09:15:31;13.27;;;6.00;;
62693;SDS011;48759;52.544;13.418;2022-11-10T09:17:59;9.80;;;5.60;;
62693;SDS011;48759;52.544;13.418;2022-11-10T09:20:28;14.07;;;4.93;;
62693;SDS011;48759;52.544;13.418;2022-11-10T09:22:55;20.23;;;4.47;;
62693;SDS011;48759;52.544;13.418;2022-11-10T09:25:30;11.27;;;5.37;;
62693;SDS011;48759;52.544;13.418;2022-11-10T09:27:56;12.40;;;4.63;;
62693;SDS011;48759;52.544;13.418;2022-11-10T09:30:23;9.77;;;4.10;;
62693;SDS011;48759;52.544;13.418;2022-11-10T09:32:52;13.20;;;4.70;;
62693;SDS011;48759;52.544;13.418;2022-11-10T09:35:18;13.10;;;5.27;;
62693;SDS011;48759;52.544;13.418;2022-11-10T09:37:45;18.10;;;5.50;;
62693;SDS011;48759;52.544;13.418;2022-11-10T09:40:15;8.70;;;4.77;;
62693;SDS011;48759;52.544;13.418;2022-11-10T09:42:45;17.93;;;5.53;;
62693;SDS011;48759;52.544;13.418;2022-11-10T09:45:16;12.40;;;4.87;;
62693;SDS011;48759;52.544;13.418;2022-11-10T09:47:49;17.60;;;5.43;;
62693;SDS011;48759;52.544;13.418;2022-11-10T09:50:26;14.67;;;5.10;;
62693;SDS011;48759;52.544;13.418;2022-11-10T09:52:56;16.30;;;5.57;;
62693;SDS011;48759;52.544;13.418;2022-11-10T09:55:29;14.30;;;6.00;;
62693;SDS011;48759;52.544;13.418;2022-11-10T09:58:01;17.73;;;5.30;;
62693;SDS011;48759;52.544;13.418;2022-11-10T10:00:28;11.20;;;5.23;;
62693;SDS011;48759;52.544;13.418;2022-11-10T10:02:59;16.63;;;4.97;;
62693;SDS011;48759;52.544;13.418;2022-11-10T10:08:29;11.53;;;5.13;;
62693;SDS011;48759;52.544;13.418;2022-11-10T10:11:06;16.93;;;5.07;;
62693;SDS011;48759;52.544;13.418;2022-11-10T10:13:53;9.40;;;4.63;;
62693;SDS011;48759;52.544;13.418;2022-11-10T10:16:30;11.13;;;5.00;;
62693;SDS011;48759;52.544;13.418;2022-11-10T10:19:03;12.33;;;4.80;;
62693;SDS011;48759;52.544;13.418;2022-11-10T10:21:44;10.80;;;4.97;;
62693;SDS011;48759;52.544;13.418;2022-11-10T10:24:21;17.03;;;5.00;;
62693;SDS011;48759;52.544;13.418;2022-11-10T10:26:52;16.93;;;6.00;;
62693;SDS011;48759;52.544;13.418;2022-11-10T10:29:22;11.50;;;4.80;;
62693;SDS011;48759;52.544;13.418;2022-11-10T10:31:51;11.23;;;4.70;;
62693;SDS011;48759;52.544;13.418;2022-11-10T10:34:19;13.80;;;4.73;;
62693;SDS011;48759;52.544;13.418;2022-11-10T10:36:47;12.17;;;4.40;;
62693;SDS011;48759;52.544;13.418;2022-11-10T10:39:14;16.57;;;5.10;;
62693;SDS011;48759;52.544;13.418;2022-11-10T10:41:43;10.73;;;4.20;;
62693;SDS011;48759;52.544;13.418;2022-11-10T10:44:12;9.83;;;4.30;;
62693;SDS011;48759;52.544;13.418;2022-11-10T10:46:47;9.83;;;4.20;;
62693;SDS011;48759;52.544;13.418;2022-11-10T10:49:17;9.70;;;4.47;;
62693;SDS011;48759;52.544;13.418;2022-11-10T10:51:45;25.90;;;4.77;;
62693;SDS011;48759;52.544;13.418;2022-11-10T10:54:25;12.03;;;4.40;;
62693;SDS011;48759;52.544;13.418;2022-11-10T10:57:00;10.80;;;3.60;;
62693;SDS011;48759;52.544;13.418;2022-11-10T10:59:28;12.23;;;4.60;;
62693;SDS011;48759;52.544;13.418;2022-11-10T11:01:57;10.00;;;4.57;;
62693;SDS011;48759;52.544;13.418;2022-11-10T11:04:25;13.10;;;4.00;;
62693;SDS011;48759;52.544;13.418;2022-11-10T11:06:54;13.97;;;4.37;;
62693;SDS011;48759;52.544;13.418;2022-11-10T11:09:23;5.77;;;4.00;;
62693;SDS011;48759;52.544;13.418;2022-11-10T11:11:58;13.60;;;5.20;;
62693;SDS011;48759;52.544;13.418;2022-11-10T11:14:26;11.77;;;4.67;;
62693;SDS011;48759;52.544;13.418;2022-11-10T11:16:55;9.23;;;4.07;;
62693;SDS011;48759;52.544;13.418;2022-11-10T11:19:24;11.30;;;4.10;;
62693;SDS011;48759;52.544;13.418;2022-11-10T11:22:01;8.93;;;3.80;;
62693;SDS011;48759;52.544;13.418;2022-11-10T11:24:41;29.17;;;5.03;;
62693;SDS011;48759;52.544;13.418;2022-11-10T11:27:16;11.17;;;4.40;;
62693;SDS011;48759;52.544;13.418;2022-11-10T11:30:06;12.63;;;4.83;;
62693;SDS011;48759;52.544;13.418;2022-11-10T11:32:48;11.10;;;4.53;;
62693;SDS011;48759;52.544;13.418;2022-11-10T11:35:23;16.00;;;4.80;;
62693;SDS011;48759;52.544;13.418;2022-11-10T11:37:59;15.30;;;4.30;;
62693;SDS011;48759;52.544;13.418;2022-11-10T11:40:37;10.33;;;4.40;;
62693;SDS011;48759;52.544;13.418;2022-11-10T11:43:13;15.60;;;4.27;;
62693;SDS011;48759;52.544;13.418;2022-11-10T11:45:55;14.13;;;4.47;;
62693;SDS011;48759;52.544;13.418;2022-11-10T11:48:37;9.23;;;3.77;;
62693;SDS011;48759;52.544;13.418;2022-11-10T11:51:14;14.80;;;4.00;;
62693;SDS011;48759;52.544;13.418;2022-11-10T11:53:50;14.03;;;4.80;;
62693;SDS011;48759;52.544;13.418;2022-11-10T11:56:29;12.80;;;4.07;;
62693;SDS011;48759;52.544;13.418;2022-11-10T11:59:02;9.13;;;3.40;;
62693;SDS011;48759;52.544;13.418;2022-11-10T12:01:42;12.70;;;3.97;;
62693;SDS011;48759;52.544;13.418;2022-11-10T12:04:42;12.73;;;3.50;;
62693;SDS011;48759;52.544;13.418;2022-11-10T12:07:13;11.83;;;4.70;;
62693;SDS011;48759;52.544;13.418;2022-11-10T12:09:53;10.13;;;3.60;;
62693;SDS011;48759;52.544;13.418;2022-11-10T12:12:54;9.10;;;4.00;;
62693;SDS011;48759;52.544;13.418;2022-11-10T12:15:39;13.90;;;3.60;;
62693;SDS011;48759;52.544;13.418;2022-11-10T12:18:17;10.03;;;4.17;;
62693;SDS011;48759;52.544;13.418;2022-11-10T12:20:57;8.90;;;3.90;;
62693;SDS011;48759;52.544;13.418;2022-11-10T12:23:31;10.53;;;3.80;;
62693;SDS011;48759;52.544;13.418;2022-11-10T12:26:08;5.70;;;2.90;;
62693;SDS011;48759;52.544;13.418;2022-11-10T12:28:44;9.70;;;3.13;;
62693;SDS011;48759;52.544;13.418;2022-11-10T12:31:16;7.63;;;3.50;;
62693;SDS011;48759;52.544;13.418;2022-11-10T12:33:46;10.43;;;3.90;;
62693;SDS011;48759;52.544;13.418;2022-11-10T12:36:17;12.00;;;4.17;;
62693;SDS011;48759;52.544;13.418;2022-11-10T12:38:50;9.47;;;3.00;;
62693;SDS011;48759;52.544;13.418;2022-11-10T12:41:22;5.93;;;2.90;;
62693;SDS011;48759;52.544;13.418;2022-11-10T12:44:05;10.60;;;3.47;;
62693;SDS011;48759;52.544;13.418;2022-11-10T12:46:41;7.97;;;2.70;;
62693;SDS011;48759;52.544;13.418;2022-11-10T12:49:12;14.47;;;3.90;;
62693;SDS011;48759;52.544;13.418;2022-11-10T12:51:47;15.03;;;3.77;;
62693;SDS011;48759;52.544;13.418;2022-11-10T12:54:19;9.00;;;3.40;;
62693;SDS011;48759;52.544;13.418;2022-11-10T12:56:48;7.70;;;3.10;;
62693;SDS011;48759;52.544;13.418;2022-11-10T12:59:23;15.40;;;3.03;;
62693;SDS011;48759;52.544;13.418;2022-11-10T13:01:56;15.63;;;3.50;;
62693;SDS011;48759;52.544;13.418;2022-11-10T13:04:27;6.33;;;3.10;;
62693;SDS011;48759;52.544;13.418;2022-11-10T13:06:56;12.20;;;2.90;;
62693;SDS011;48759;52.544;13.418;2022-11-10T13:09:26;13.63;;;3.40;;
62693;SDS011;48759;52.544;13.418;2022-11-10T13:12:04;17.50;;;3.03;;
62693;SDS011;48759;52.544;13.418;2022-11-10T13:14:39;7.80;;;2.63;;
62693;SDS011;48759;52.544;13.418;2022-11-10T13:17:07;11.60;;;3.60;;
62693;SDS011;48759;52.544;13.418;2022-11-10T13:19:48;9.23;;;2.90;;
62693;SDS011;48759;52.544;13.418;2022-11-10T13:22:33;10.00;;;3.03;;
62693;SDS011;48759;52.544;13.418;2022-11-10T13:28:07;9.70;;;3.20;;
62693;SDS011;48759;52.544;13.418;2022-11-10T13:30:36;10.53;;;3.23;;
62693;SDS011;48759;52.544;13.418;2022-11-10T13:36:00;8.83;;;2.77;;
62693;SDS011;48759;52.544;13.418;2022-11-10T13:38:35;7.53;;;2.97;;
62693;SDS011;48759;52.544;13.418;2022-11-10T13:43:57;6.93;;;2.83;;
62693;SDS011;48759;52.544;13.418;2022-11-10T13:48:55;14.00;;;3.33;;
62693;SDS011;48759;52.544;13.418;2022-11-10T13:51:40;7.40;;;3.07;;
62693;SDS011;48759;52.544;13.418;2022-11-10T13:54:33;8.07;;;3.10;;
62693;SDS011;48759;52.544;13.418;2022-11-10T13:57:19;14.17;;;3.70;;
62693;SDS011;48759;52.544;13.418;2022-11-10T13:59:51;13.77;;;4.00;;
62693;SDS011;48759;52.544;13.418;2022-11-10T14:08:30;14.87;;;5.50;;
62693;SDS011;48759;52.544;13.418;2022-11-10T14:11:03;8.03;;;3.33;;
62693;SDS011;48759;52.544;13.418;2022-11-10T14:13:39;13.70;;;3.47;;
62693;SDS011;48759;52.544;13.418;2022-11-10T14:16:14;12.43;;;4.17;;
62693;SDS011;48759;52.544;13.418;2022-11-10T14:18:49;11.50;;;3.10;;
62693;SDS011;48759;52.544;13.418;2022-11-10T14:21:22;11.00;;;3.87;;
62693;SDS011;48759;52.544;13.418;2022-11-10T14:23:57;7.50;;;2.80;;
62693;SDS011;48759;52.544;13.418;2022-11-10T14:26:31;12.57;;;3.30;;
62693;SDS011;48759;52.544;13.418;2022-11-10T14:29:18;13.33;;;3.57;;
62693;SDS011;48759;52.544;13.418;2022-11-10T14:31:55;9.27;;;2.70;;
62693;SDS011;48759;52.544;13.418;2022-11-10T14:34:22;13.80;;;4.97;;
62693;SDS011;48759;52.544;13.418;2022-11-10T14:36:50;14.27;;;4.10;;
62693;SDS011;48759;52.544;13.418;2022-11-10T14:39:21;8.13;;;3.70;;
62693;SDS011;48759;52.544;13.418;2022-11-10T14:41:53;14.27;;;4.60;;
62693;SDS011;48759;52.544;13.418;2022-11-10T14:44:22;10.70;;;3.67;;
62693;SDS011;48759;52.544;13.418;2022-11-10T14:46:50;23.27;;;6.23;;
62693;SDS011;48759;52.544;13.418;2022-11-10T14:49:21;8.10;;;3.57;;
62693;SDS011;48759;52.544;13.418;2022-11-10T14:51:48;10.90;;;3.40;;
62693;SDS011;48759;52.544;13.418;2022-11-10T14:54:19;9.63;;;3.10;;
62693;SDS011;48759;52.544;13.418;2022-11-10T14:56:51;5.80;;;3.10;;
62693;SDS011;48759;52.544;13.418;2022-11-10T14:59:18;19.17;;;11.87;;
62693;SDS011;48759;52.544;13.418;2022-11-10T15:01:48;13.57;;;5.17;;
62693;SDS011;48759;52.544;13.418;2022-11-10T15:04:18;9.80;;;4.50;;
62693;SDS011;48759;52.544;13.418;2022-11-10T15:06:48;13.77;;;4.13;;